Terminal Aerodrome Forecast
Issued by NWS

Home | Current Version | Previous Version | Text Only | Print | Product List | Glossary On
Versions: 1 2 3 4 5 6 7 8 9 10 11 12 13 14 15 16 17
000
FTUS43 KDLH 251725
TAFHYR
TAF
KHYR 251725Z 2518/2618 13005KT P6SM OVC070
     FM252100 10005KT 6SM -SHRA OVC040
     FM260000 04010G17KT 3SM -RA BR OVC025
     FM260300 04010G17KT 3SM RA BR OVC015
     FM260600 03011G18KT 3SM RA BR OVC007=

USA.gov is the U.S. government's official web portal to all federal, state and local government web resources and services.